Logo AVAMET
Benvolgut visitant, si us plau, ingressa Recuperar contrasenya

Vilallonga nord

Dades diàries. Acumulats / Últims 30 dies disponibles

Data Temperatura (°C) Humitat rel. (%) Pressió rel. (hPa) Vent (km/h) Precipitació
Mínima Mitjana Màxima Amplitud
tèrmica
Mínima Mitjana Màxima Mínima Mitjana Màxima Predom. Mitjana Ràfega
màxima
Total
(mm)
Índex-n
Mínima Mitjana Màxima Mínima Mitjana Màxima n
0 a 1
P0 max
mm 5'
Dades mensuals acumulades fins l'últim dia disponible
01/2020 4,0 7,2 11,2 10,6 10,9 15,7 19,5 15,5 32 76 98 1.012 1.026 1.035   3,2 67,6 214,2
Dades anuals acumulades fins l'últim dia disponible
2020 4,0 7,2 11,2 10,6 10,9 15,7 19,5 15,5 32 76 98 1.012 1.026 1.035   3,2 67,6 214,2
Últims 30 dies disponibles
27-01-2020 8,6     12,9     17,2 8,6 45 60 76 1.021 1.024 1.026 OSO 6,2 35,4 0,0
26-01-2020 9,6     13,0     17,9 8,3 50 70 91 1.019 1.022 1.026 OSO 5,4 29,0 0,2
25-01-2020 9,2     11,4     14,2 5,0 78 88 93 1.018 1.020 1.022 SSE 2,3 16,1 0,0
24-01-2020 8,1     9,8     13,4 5,3 84 89 95 1.022 1.023 1.024 SSE 2,2 14,5 0,0
23-01-2020 6,1     9,1     12,8 6,7 85 88 94 1.020 1.021 1.023 SE 2,3 20,9 0,0
22-01-2020 7,9     9,9     13,3 5,4 85 90 95 1.018 1.019 1.020 SE 1,3 16,1 7,2 0,20
21-01-2020 8,2     11,1     15,6 7,4 75 91 98 1.012 1.016 1.020 E 2,2 37,0 47,0 0,54 6,00
20-01-2020 6,1     8,5     10,9 4,8 95 97 97 1.017 1.020 1.022 NE 14,5 67,6 86,8 0,58 6,40
19-01-2020 6,6     10,7     14,1 7,5 66 83 97 1.015 1.018 1.022 S 7,6 59,5 64,6 0,48 9,30
18-01-2020 10,4     13,3     18,2 7,8 46 62 73 1.021 1.028 1.033 SSE 1,6 32,2 0,0
17-01-2020 11,2     15,3     18,6 7,4 37 49 71 1.028 1.030 1.032 O 7,0 38,6 0,0
16-01-2020 9,2     13,0     18,3 9,1 53 68 82 1.027 1.028 1.030 S 3,9 24,1 0,0
15-01-2020 7,8     12,7     19,5 11,7 39 57 72 1.024 1.026 1.028 SSO 3,0 20,9 0,0
14-01-2020 6,6     10,5     16,9 10,3 37 59 79 1.021 1.023 1.025 SE 2,0 20,9 0,0
13-01-2020 4,0     9,6     18,6 14,6 32 58 73 1.023 1.026 1.031 SSE 1,5 19,3 0,0
12-01-2020 4,8     8,5     14,6 9,8 48 71 82 1.029 1.031 1.032 SE 1,3 17,7 0,0
11-01-2020 6,5     9,8     15,1 8,6 60 79 90 1.029 1.031 1.033 SE 1,0 16,1 0,0
10-01-2020 8,2     10,7     14,8 6,6 55 78 90 1.023 1.026 1.030 SSE 3,6 38,6 8,0 0,42 0,80
09-01-2020 6,9     10,3     15,4 8,5 63 81 90 1.025 1.028 1.031 SSE 1,9 16,1 0,0
08-01-2020 5,9     10,1     15,5 9,6 60 78 90 1.029 1.031 1.033 SE 1,3 16,1 0,0
07-01-2020 5,3     9,5     16,6 11,3 57 79 90 1.029 1.031 1.033 SE 1,6 19,3 0,0
06-01-2020 6,8     9,6     15,4 8,6 65 78 91 1.028 1.030 1.032 SSE 3,0 22,5 0,0
05-01-2020 6,3     10,2     18,2 11,9 44 72 83 1.028 1.030 1.032 SSE 2,4 22,5 0,0
04-01-2020 7,1     9,9     15,2 8,1 55 78 91 1.032 1.033 1.035 SSE 2,2 20,9 0,2
03-01-2020 5,6     9,8     16,0 10,4 53 82 92 1.030 1.032 1.034 ESE 1,1 12,9 0,0
02-01-2020 5,3     8,7     13,9 8,6 70 86 93 1.031 1.032 1.034 SE 1,9 17,7 0,2
01-01-2020 5,7     9,4     14,8 9,1 66 82 92 1.032 1.033 1.034 ESE 0,9 14,5 0,0
31-12-2019 5,9     9,3     14,3 8,4 71 83 91 1.032 1.033 1.036 SSE 1,7 16,1 0,0
30-12-2019 8,6     11,1     14,9 6,3 66 80 88 1.032 1.033 1.035 SE 1,4 16,1 0,0
29-12-2019 7,4     10,4     14,8 7,4 68 83 91 1.031 1.033 1.035 SSE 2,7 19,3 0,0
Últims 13 mesos disponibles
12/2019 5,9 11,5 20,4 14,4 12,8 18,4 25,7 19,8 44 67 92 1.003 1.019 1.033 SSE 5,4 72,4 307,2
11/2019 6,2 13,0 22,0 16,0 15,1 19,6 26,8 20,6 44 55 73 1.000 1.011 1.019 O 7,4 56,3 14,2
10/2019 12,3 16,7 20,8 20,6 16,2 25,3 33,6 21,3 42 65 86 1.008 1.017 1.022 SSO 2,8 45,1 65,8
09/2019 14,7 20,2 23,0 23,8 22,3 28,0 35,0 20,3 47 73 94 1.010 1.017 1.024 ENE 2,8 66,0 138,0
08/2019 19,2 22,7 26,9 27,2 27,4 32,6 40,2 21,0 34 66 79 1.010 1.015 1.020 SE 3,7 41,8 58,4
07/2019 21,2 23,1 26,8 27,8 28,7 32,8 38,7 17,5 38 61 77 1.005 1.014 1.021 E 4,4 61,2 0,8
06/2019 13,5 18,4 22,4 23,6 21,6 29,1 38,8 25,3 32 59 79 1.009 1.015 1.022 ESE 3,9 43,5 0,2
05/2019 9,7 15,2 22,7 19,7 18,7 24,8 32,3 22,6 46 63 79 1.005 1.015 1.024 E 3,7 51,5 10,2
04/2019 9,4 12,4 16,9 16,0 13,7 20,1 29,6 20,2 35 66 96 1.000 1.013 1.025 ENE 5,2 49,9 221,5
03/2019 6,7 10,1 17,2 14,9 13,4 20,2 28,8 22,1 33 56 91 1.010 1.023 1.030 SE 3,3 48,3 102,2
02/2019 4,9 8,2 11,8 12,5 12,7 17,8 24,5 19,6 35 60 82 996 1.025 1.034 ESE 3,9 62,8 0,4
01/2019 2,1 7,4 14,2 11,4 11,7 16,8 20,9 18,8 37 57 82 1.003 1.019 1.031 SSE 4,7 59,5 10,0
12/2018 5,8 9,6 13,6 13,6 13,7 19,1 25,6 19,8 47 65 90 1.010 1.026 1.031 SSE 3,1 61,2 21,2
Tots els anys disponibles
2019 2,1 15,0 26,9 19,0 11,7 23,8 40,2 38,1 32 62 96 996 1.017 1.034 ESE 4,3 72,4 928,9
Temperatura (°C)
Humitat relativa (%)
Velocitat del vent i ràfega màxima (km/h)
Direcció del vent (°)
Pressió (hPa)
Precipitació (mm)
Nota sobre les dades: s'avisa a l'usuari de la provisionalitat i no oficialitat d'aquestes dades
Logo AVAMET blanc
Web allotjada a Sollutia
Llicència de Creative CommonsLa web d'AVAMET i els seus continguts estan subjectes a una llicència de
Reconeixement - No Comercial - Compartir igual
Últimes estacions: Xixona - Els Ameradors (Soci), Agres - El Tossal (Soci), Xàbia - Bevenguts (MeteoXàbia), Llíria (Aj. Soci/Inforatge), Orihuela - Lo Capitán, Cox & Guardamar del Segura - horta (Meteorihuela), l'Alcúdia - Carriona & el Real de Gandia (Inforatge), Benicàssim - les Vil·les (Soci),  l'Alfàs del Pi - l'Albir (Soci), - - -